Fulton County Airport Brown Field
KFTY : now visible

Airfield :











YOU CAN JOIN US ON...

 
LOGIN :

Register | Disclaimer

   EN    FR    IT 

 









Legend :    VFR   Marginal VFR   IFR   Intensive IFR   Very Intensive IFR
Visi :
Ceiling :
>= 8 km
>= 3000ft
5 to 8 km
1000 to 3000 ft
1500m to 5 km
500 to 1000 ft
800 to 1500m
200 to 500 ft
< 800m
< 200 ft
Symbols :   Thunderstorms  Fog  Heavy snow  Heavy precipitations  Wind > 20 kt






- Airport Elevation : 841 ft


KFTY - Fulton County Brown Field

CURRENT METAR :
  • 162053Z 13009G19KT 10SM FEW070 36/18 A3002 RMK AO2 SLP155 T03560178 56017

EXPIRED METARs :
  • 161953Z 16006KT 10SM CLR 36/18 A3003 RMK AO2 SLP158 T03560178
  • 161853Z 14008G18KT 100V160 10SM FEW060 34/19 A3005 RMK AO2 SLP164 T03440189
  • 161753Z 11008KT 10SM FEW065 SCT100 34/18 A3008 RMK AO2 SLP172 T03390178 10344 20256 58008
  • 161653Z 13003KT 10SM FEW060 33/19 A3009 RMK AO2 SLP177 T03330189

TAF KFTY
Valid from the 16 at 18:00 until the 17 at 18:00 UTC


161731Z 1618/1718 15007KT P6SM FEW050
TEMPO 1619/1623 5SM -TSRA BR BKN060CB
FM170100 12004KT P6SM FEW070 BKN250
FM170600 14005KT P6SM SCT200
FM171400 12006KT P6SM SCT070
KZTL FIR / North America



MET'MAP, your aeronautical weather chart ! - Copyright ORBIFLY December 2007 - Disclaimer

ORBIFLY MET'MAP TEAM :

Programming & Development : Alexandra Zaïnal
Original concept : Baudouin d'Aumeries
Technical & hardware support : Manuel Goepfert
Assistance : Marc-Olivier Méhu




SOURCES & CREDITS :

   NOAA       Earth
Advisory